createdAt,value
2018-03-31T00:00:13.485Z,100423.73
2018-03-31T00:00:36.312Z,100416.98
2018-03-31T00:00:59.325Z,100421.44
2018-03-31T00:01:21.372Z,100418.56
2018-03-31T00:01:44.228Z,100417.19
2018-03-31T00:02:06.285Z,100417.64
2018-03-31T00:02:28.340Z,100418.48
2018-03-31T00:02:51.168Z,100417.56
2018-03-31T00:03:13.987Z,100412.56
2018-03-31T00:03:36.070Z,100406.77
2018-03-31T00:03:58.123Z,100416.44
2018-03-31T00:04:20.178Z,100418.27
2018-03-31T00:04:42.262Z,100412.19
2018-03-31T00:05:04.327Z,100413.11
2018-03-31T00:05:26.373Z,100415.69
2018-03-31T00:05:48.438Z,100416.90
2018-03-31T00:06:11.365Z,100414.77
2018-03-31T00:06:34.199Z,100418.77
2018-03-31T00:06:57.046Z,100412.02
2018-03-31T00:07:19.892Z,100415.23
2018-03-31T00:07:41.950Z,100415.69
2018-03-31T00:08:04.016Z,100414.06
2018-03-31T00:08:26.873Z,100413.60
2018-03-31T00:08:48.933Z,100408.61
2018-03-31T00:09:11.010Z,100411.56
2018-03-31T00:09:33.068Z,100408.61
2018-03-31T00:09:55.122Z,100412.11
2018-03-31T00:10:17.947Z,100410.90
2018-03-31T00:10:40.768Z,100409.61
2018-03-31T00:11:02.826Z,100411.56
2018-03-31T00:11:24.892Z,100407.03
2018-03-31T00:11:46.941Z,100410.19
2018-03-31T00:12:09.771Z,100415.81
2018-03-31T00:12:32.593Z,100414.40
2018-03-31T00:12:54.669Z,100410.44
2018-03-31T00:13:16.731Z,100411.56
2018-03-31T00:13:39.564Z,100412.94
2018-03-31T00:14:02.394Z,100409.15
2018-03-31T00:14:24.454Z,100405.94
2018-03-31T00:14:46.546Z,100407.52
2018-03-31T00:15:09.373Z,100410.31
2018-03-31T00:15:31.429Z,100406.98
2018-03-31T00:15:53.494Z,100410.39
2018-03-31T00:16:15.551Z,100413.98
2018-03-31T00:16:37.607Z,100409.36
2018-03-31T00:16:59.699Z,100411.94
2018-03-31T00:17:21.756Z,100417.39
2018-03-31T00:17:43.870Z,100404.86
2018-03-31T00:18:05.937Z,100412.39
2018-03-31T00:18:27.995Z,100409.81
2018-03-31T00:18:50.062Z,100409.44
2018-03-31T00:19:12.893Z,100410.36
2018-03-31T00:19:35.711Z,100406.86
2018-03-31T00:19:57.768Z,100413.52
2018-03-31T00:20:19.868Z,100409.73
2018-03-31T00:20:42.699Z,100412.86
2018-03-31T00:21:05.500Z,100411.65
2018-03-31T00:21:27.585Z,100413.11
2018-03-31T00:21:49.714Z,100414.06
2018-03-31T00:22:11.789Z,100413.94
2018-03-31T00:22:34.609Z,100408.23
2018-03-31T00:22:56.662Z,100409.90
2018-03-31T00:23:18.709Z,100412.94
2018-03-31T00:23:40.766Z,100415.52
2018-03-31T00:24:03.593Z,100409.44
2018-03-31T00:24:25.705Z,100411.86
2018-03-31T00:24:47.755Z,100409.06
2018-03-31T00:25:09.807Z,100397.28
2018-03-31T00:25:31.881Z,100409.06
2018-03-31T00:25:54.706Z,100399.66
2018-03-31T00:26:17.539Z,100410.53
2018-03-31T00:26:40.353Z,100402.15
2018-03-31T00:27:02.416Z,100406.40
2018-03-31T00:27:24.472Z,100407.14
2018-03-31T00:27:46.530Z,100403.81
2018-03-31T00:28:09.346Z,100403.65
2018-03-31T00:28:31.492Z,100404.48
2018-03-31T00:28:54.369Z,100401.98
2018-03-31T00:29:16.406Z,100398.11
2018-03-31T00:29:38.466Z,100402.98
2018-03-31T00:30:01.293Z,100396.33
2018-03-31T00:30:24.138Z,100398.20
2018-03-31T00:30:46.207Z,100397.73
2018-03-31T00:31:09.025Z,100396.33
2018-03-31T00:31:31.086Z,100393.28
2018-03-31T00:31:53.154Z,100388.20
2018-03-31T00:32:15.228Z,100391.53
2018-03-31T00:32:38.050Z,100390.62
2018-03-31T00:33:00.116Z,100388.03
2018-03-31T00:33:22.194Z,100389.98
2018-03-31T00:33:45.028Z,100391.16
2018-03-31T00:34:07.081Z,100384.25
2018-03-31T00:34:29.156Z,100386.83
2018-03-31T00:34:51.219Z,100390.08
2018-03-31T00:35:13.284Z,100387.58
2018-03-31T00:35:35.335Z,100384.62
2018-03-31T00:35:58.154Z,100377.70
2018-03-31T00:36:20.958Z,100385.83
2018-03-31T00:36:43.032Z,100386.28
2018-03-31T00:37:05.142Z,100377.25
2018-03-31T00:37:27.190Z,100381.50
2018-03-31T00:37:49.249Z,100380.75
2018-03-31T00:38:11.305Z,100383.78
2018-03-31T00:38:33.366Z,100382.24
2018-03-31T00:38:55.481Z,100384.45
2018-03-31T00:39:17.513Z,100381.78
2018-03-31T00:39:39.604Z,100392.57
2018-03-31T00:40:01.666Z,100386.95
2018-03-31T00:40:24.498Z,100386.66
2018-03-31T00:40:47.316Z,100386.95
2018-03-31T00:41:09.417Z,100381.58
2018-03-31T00:41:31.496Z,100375.50
2018-03-31T00:41:53.551Z,100383.53
2018-03-31T00:42:15.608Z,100384.16
2018-03-31T00:42:38.431Z,100376.25
2018-03-31T00:43:00.485Z,100379.95
2018-03-31T00:43:22.536Z,100381.08
2018-03-31T00:43:45.440Z,100377.12
2018-03-31T00:44:07.494Z,100380.98
2018-03-31T00:44:29.576Z,100377.83
2018-03-31T00:44:51.716Z,100372.29
2018-03-31T00:45:13.804Z,100379.66
2018-03-31T00:45:35.869Z,100375.87
2018-03-31T00:45:58.002Z,100373.08
2018-03-31T00:46:20.044Z,100379.83
2018-03-31T00:46:42.877Z,100372.83
2018-03-31T00:47:05.709Z,100375.70
2018-03-31T00:47:28.541Z,100379.45
2018-03-31T00:47:51.381Z,100378.54
2018-03-31T00:48:14.199Z,100381.58
2018-03-31T00:48:36.252Z,100378.83
2018-03-31T00:48:58.364Z,100373.75
2018-03-31T00:49:20.425Z,100390.16
2018-03-31T00:49:42.471Z,100375.67
2018-03-31T00:50:04.523Z,100376.88
2018-03-31T00:50:26.572Z,100384.45
2018-03-31T00:50:48.627Z,100385.74
2018-03-31T00:51:11.446Z,100382.95
2018-03-31T00:51:33.496Z,100381.87
2018-03-31T00:51:56.318Z,100381.03
2018-03-31T00:52:19.142Z,100382.13
2018-03-31T00:52:41.223Z,100380.66
2018-03-31T00:53:03.289Z,100388.03
2018-03-31T00:53:26.111Z,100385.00
2018-03-31T00:53:48.174Z,100378.54
2018-03-31T00:54:10.246Z,100380.66
2018-03-31T00:54:32.298Z,100377.83
2018-03-31T00:54:54.346Z,100376.16
2018-03-31T00:55:16.435Z,100371.00
2018-03-31T00:55:38.485Z,100374.33
2018-03-31T00:56:00.547Z,100375.16
2018-03-31T00:56:23.374Z,100374.79
2018-03-31T00:56:45.448Z,100370.08
2018-03-31T00:57:07.507Z,100367.04
2018-03-31T00:57:29.610Z,100360.59
2018-03-31T00:57:51.669Z,100366.67
2018-03-31T00:58:13.749Z,100366.75
2018-03-31T00:58:35.803Z,100363.63
2018-03-31T00:58:57.856Z,100364.83
2018-03-31T00:59:19.917Z,100364.92
2018-03-31T00:59:42.745Z,100367.13
2018-03-31T01:00:04.801Z,100360.88
2018-03-31T01:00:26.867Z,100370.29
2018-03-31T01:00:48.925Z,100365.13
2018-03-31T01:01:10.988Z,100360.21
2018-03-31T01:01:33.038Z,100368.50
2018-03-31T01:01:55.859Z,100364.25
2018-03-31T01:02:17.916Z,100368.21
2018-03-31T01:02:39.976Z,100373.83
2018-03-31T01:03:02.060Z,100365.45
2018-03-31T01:03:24.119Z,100369.63
2018-03-31T01:03:46.169Z,100367.33
2018-03-31T01:04:08.985Z,100369.91
2018-03-31T01:04:31.053Z,100367.04
2018-03-31T01:04:53.160Z,100367.70
2018-03-31T01:05:15.223Z,100364.58
2018-03-31T01:05:37.274Z,100363.29
2018-03-31T01:06:00.140Z,100365.66
2018-03-31T01:06:22.196Z,100362.80
2018-03-31T01:06:44.244Z,100368.33
2018-03-31T01:07:07.066Z,100372.83
2018-03-31T01:07:29.886Z,100370.80
2018-03-31T01:07:51.947Z,100367.67
2018-03-31T01:08:14.021Z,100368.87
2018-03-31T01:08:36.072Z,100363.34
2018-03-31T01:08:58.880Z,100365.00
2018-03-31T01:09:20.928Z,100365.45
2018-03-31T01:09:42.987Z,100368.87
2018-03-31T01:10:05.033Z,100367.33
2018-03-31T01:10:27.099Z,100366.41
2018-03-31T01:10:49.191Z,100370.45
2018-03-31T01:11:12.022Z,100364.00
2018-03-31T01:11:34.841Z,100365.20
2018-03-31T01:11:56.898Z,100375.53
2018-03-31T01:12:18.948Z,100366.75
2018-03-31T01:12:41.006Z,100369.42
2018-03-31T01:13:03.836Z,100372.00
2018-03-31T01:13:26.701Z,100366.20
2018-03-31T01:13:48.766Z,100360.75
2018-03-31T01:14:10.824Z,100370.62
2018-03-31T01:14:32.892Z,100368.50
2018-03-31T01:14:55.709Z,100364.55
2018-03-31T01:15:17.760Z,100359.17
2018-03-31T01:15:39.871Z,100369.13
2018-03-31T01:16:01.933Z,100360.75
2018-03-31T01:16:23.996Z,100365.00
2018-03-31T01:16:46.804Z,100367.84
2018-03-31T01:17:08.873Z,100361.30
2018-03-31T01:17:30.941Z,100356.22
2018-03-31T01:17:53.108Z,100357.88
2018-03-31T01:18:15.147Z,100363.88
2018-03-31T01:18:37.996Z,100358.09
2018-03-31T01:19:00.054Z,100359.37
2018-03-31T01:19:22.134Z,100356.13
2018-03-31T01:19:44.192Z,100349.59
2018-03-31T01:20:06.247Z,100349.30
2018-03-31T01:20:29.077Z,100347.01
2018-03-31T01:20:51.961Z,100346.55
2018-03-31T01:21:14.019Z,100343.59
2018-03-31T01:21:36.075Z,100351.34
2018-03-31T01:21:58.143Z,100347.64
2018-03-31T01:22:20.211Z,100340.80
2018-03-31T01:22:42.268Z,100343.30
2018-03-31T01:23:04.323Z,100354.67
2018-03-31T01:23:27.137Z,100342.77
2018-03-31T01:23:49.217Z,100346.64
2018-03-31T01:24:11.270Z,100347.55
2018-03-31T01:24:33.536Z,100343.77
2018-03-31T01:24:55.602Z,100344.89
2018-03-31T01:25:17.661Z,100354.59
2018-03-31T01:25:39.731Z,100339.64
2018-03-31T01:26:01.785Z,100340.93
2018-03-31T01:26:24.626Z,100342.84
2018-03-31T01:26:46.687Z,100339.05
2018-03-31T01:27:08.758Z,100336.02
2018-03-31T01:27:31.554Z,100337.42
2018-03-31T01:27:53.661Z,100332.34
2018-03-31T01:28:15.793Z,100327.72
2018-03-31T01:28:37.840Z,100329.94
2018-03-31T01:29:00.698Z,100327.90
2018-03-31T01:29:22.780Z,100330.97
2018-03-31T01:29:45.629Z,100334.02
2018-03-31T01:30:08.468Z,100334.94
2018-03-31T01:30:31.301Z,100337.68
2018-03-31T01:30:54.134Z,100329.94
2018-03-31T01:31:16.964Z,100330.31
2018-03-31T01:31:39.793Z,100328.85
2018-03-31T01:32:02.068Z,100320.27
2018-03-31T01:32:24.117Z,100317.23
2018-03-31T01:32:46.170Z,100320.11
2018-03-31T01:33:08.245Z,100325.10
2018-03-31T01:33:30.325Z,100322.52
2018-03-31T01:33:52.378Z,100320.48
2018-03-31T01:34:14.485Z,100328.60
2018-03-31T01:34:36.543Z,100323.73
2018-03-31T01:34:59.424Z,100323.81
2018-03-31T01:35:21.549Z,100311.73
2018-03-31T01:35:43.601Z,100320.40
2018-03-31T01:36:05.812Z,100321.69
2018-03-31T01:36:27.881Z,100314.95
2018-03-31T01:36:49.944Z,100319.48
2018-03-31T01:37:11.994Z,100320.86
2018-03-31T01:37:34.824Z,100314.11
2018-03-31T01:37:57.645Z,100323.52
2018-03-31T01:38:19.708Z,100322.86
2018-03-31T01:38:41.821Z,100328.27
2018-03-31T01:39:03.877Z,100321.56
2018-03-31T01:39:26.739Z,100329.23
2018-03-31T01:39:48.787Z,100324.44
2018-03-31T01:40:10.836Z,100315.95
2018-03-31T01:40:32.889Z,100318.90
2018-03-31T01:40:54.933Z,100334.19
2018-03-31T01:41:16.993Z,100315.36
2018-03-31T01:41:39.053Z,100317.11
2018-03-31T01:42:01.882Z,100319.61
2018-03-31T01:42:24.697Z,100323.48
2018-03-31T01:42:46.765Z,100323.02
2018-03-31T01:43:08.810Z,100319.61
2018-03-31T01:43:30.861Z,100321.19
2018-03-31T01:43:52.915Z,100324.15
2018-03-31T01:44:15.010Z,100325.15
2018-03-31T01:44:37.072Z,100321.27
2018-03-31T01:44:59.230Z,100320.98
2018-03-31T01:45:21.336Z,100320.06
2018-03-31T01:45:43.406Z,100316.11
2018-03-31T01:46:05.546Z,100320.44
2018-03-31T01:46:27.601Z,100318.69
2018-03-31T01:46:49.645Z,100324.40
2018-03-31T01:47:12.482Z,100311.98
2018-03-31T01:47:34.539Z,100314.48
2018-03-31T01:47:56.592Z,100314.28
2018-03-31T01:48:18.637Z,100312.98
2018-03-31T01:48:40.689Z,100327.19
2018-03-31T01:49:02.755Z,100322.11
2018-03-31T01:49:25.572Z,100331.60
2018-03-31T01:49:47.657Z,100327.36
2018-03-31T01:50:09.711Z,100323.94
2018-03-31T01:50:31.778Z,100323.86
2018-03-31T01:50:53.832Z,100334.94
2018-03-31T01:51:15.852Z,100332.10
2018-03-31T01:51:37.892Z,100334.77
2018-03-31T01:52:00.719Z,100336.23
2018-03-31T01:52:23.565Z,100326.90
2018-03-31T01:52:46.408Z,100333.73
2018-03-31T01:53:08.471Z,100333.27
2018-03-31T01:53:30.528Z,100327.36
2018-03-31T01:53:53.341Z,100329.10
2018-03-31T01:54:15.403Z,100327.65
2018-03-31T01:54:37.457Z,100334.19
2018-03-31T01:54:59.546Z,100331.60
2018-03-31T01:55:21.600Z,100331.06
2018-03-31T01:55:43.655Z,100333.73
2018-03-31T01:56:06.526Z,100332.44
2018-03-31T01:56:29.292Z,100335.48
2018-03-31T01:56:51.353Z,100337.42
2018-03-31T01:57:13.413Z,100336.94
2018-03-31T01:57:35.472Z,100338.89
2018-03-31T01:57:58.287Z,100343.05
2018-03-31T01:58:20.359Z,100343.39
2018-03-31T01:58:42.427Z,100342.67
2018-03-31T01:59:05.178Z,100334.02
2018-03-31T01:59:28.005Z,100345.63
2018-03-31T01:59:50.795Z,100347.27
2018-03-31T02:00:12.891Z,100345.72
2018-03-31T02:00:34.946Z,100350.52
2018-03-31T02:00:57.772Z,100340.18
2018-03-31T02:01:19.822Z,100342.84
2018-03-31T02:01:41.886Z,100342.93
2018-03-31T02:02:03.939Z,100335.77
2018-03-31T02:02:25.988Z,100329.48
2018-03-31T02:02:48.834Z,100326.19
2018-03-31T02:03:10.896Z,100330.31
2018-03-31T02:03:32.948Z,100325.31
2018-03-31T02:03:55.775Z,100329.48
2018-03-31T02:04:17.894Z,100324.69
2018-03-31T02:04:39.952Z,100320.36
2018-03-31T02:05:02.007Z,100325.44
2018-03-31T02:05:24.095Z,100333.48
2018-03-31T02:05:46.148Z,100324.98
2018-03-31T02:06:08.210Z,100320.27
2018-03-31T02:06:30.269Z,100319.36
2018-03-31T02:06:52.334Z,100326.94
2018-03-31T02:07:15.141Z,100330.52
2018-03-31T02:07:37.196Z,100332.10
2018-03-31T02:07:59.265Z,100331.19
2018-03-31T02:08:21.322Z,100325.02
2018-03-31T02:08:44.139Z,100326.94
2018-03-31T02:09:06.196Z,100329.14
2018-03-31T02:09:28.256Z,100324.44
2018-03-31T02:09:50.326Z,100324.23
2018-03-31T02:10:12.373Z,100328.19
2018-03-31T02:10:34.453Z,100322.86
2018-03-31T02:10:56.506Z,100323.23
2018-03-31T02:11:18.572Z,100316.77
2018-03-31T02:11:41.391Z,100311.32
2018-03-31T02:12:03.450Z,100305.41
2018-03-31T02:12:25.557Z,100315.20
2018-03-31T02:12:47.649Z,100308.20
2018-03-31T02:13:09.717Z,100312.36
2018-03-31T02:13:31.853Z,100310.23
2018-03-31T02:13:53.915Z,100313.36
2018-03-31T02:14:16.734Z,100315.03
2018-03-31T02:14:38.780Z,100310.23
2018-03-31T02:15:00.840Z,100317.52
2018-03-31T02:15:22.901Z,100318.15
2018-03-31T02:15:45.744Z,100321.65
2018-03-31T02:16:08.566Z,100310.95
2018-03-31T02:16:31.379Z,100318.61
2018-03-31T02:16:53.439Z,100314.36
2018-03-31T02:17:15.529Z,100319.52
2018-03-31T02:17:37.649Z,100316.11
2018-03-31T02:17:59.692Z,100318.15
2018-03-31T02:18:21.744Z,100320.73
2018-03-31T02:18:43.926Z,100325.44
2018-03-31T02:19:05.997Z,100322.56
2018-03-31T02:19:28.048Z,100318.06
2018-03-31T02:19:50.883Z,100316.77
2018-03-31T02:20:13.708Z,100317.03
2018-03-31T02:20:35.767Z,100317.31
2018-03-31T02:20:57.860Z,100319.19
2018-03-31T02:21:20.677Z,100321.48
2018-03-31T02:21:42.734Z,100320.77
2018-03-31T02:22:04.799Z,100320.15
2018-03-31T02:22:27.633Z,100318.02
2018-03-31T02:22:49.732Z,100319.94
2018-03-31T02:23:11.797Z,100311.73
2018-03-31T02:23:34.629Z,100313.77
2018-03-31T02:23:57.453Z,100315.90
2018-03-31T02:24:19.518Z,100312.48
2018-03-31T02:24:41.561Z,100315.44
2018-03-31T02:25:03.631Z,100309.32
2018-03-31T02:25:25.813Z,100307.11
2018-03-31T02:25:47.856Z,100313.95
2018-03-31T02:26:10.681Z,100308.48
2018-03-31T02:26:33.509Z,100308.57
2018-03-31T02:26:55.589Z,100304.23
2018-03-31T02:27:17.642Z,100308.57
2018-03-31T02:27:39.701Z,100311.82
2018-03-31T02:28:01.864Z,100305.36
2018-03-31T02:28:23.937Z,100306.28
2018-03-31T02:28:45.994Z,100311.28
2018-03-31T02:29:08.051Z,100319.02
2018-03-31T02:29:30.894Z,100307.95
2018-03-31T02:29:52.954Z,100312.73
2018-03-31T02:30:15.014Z,100310.07
2018-03-31T02:30:37.890Z,100306.36
2018-03-31T02:30:59.961Z,100305.73
2018-03-31T02:31:22.812Z,100309.98
2018-03-31T02:31:45.634Z,100306.58
2018-03-31T02:32:08.457Z,100307.03
2018-03-31T02:32:30.517Z,100300.87
2018-03-31T02:32:52.576Z,100306.95
2018-03-31T02:33:14.630Z,100299.58
2018-03-31T02:33:37.480Z,100296.91
2018-03-31T02:33:59.538Z,100306.95
2018-03-31T02:34:21.598Z,100301.58
2018-03-31T02:34:44.426Z,100303.70
2018-03-31T02:35:07.243Z,100302.49
2018-03-31T02:35:29.299Z,100301.87
2018-03-31T02:35:51.358Z,100300.95
2018-03-31T02:36:13.417Z,100304.98
2018-03-31T02:36:36.277Z,100302.95
2018-03-31T02:36:58.327Z,100293.00
2018-03-31T02:37:20.385Z,100295.50
2018-03-31T02:37:43.220Z,100293.00
2018-03-31T02:38:05.305Z,100295.41
2018-03-31T02:38:27.366Z,100290.79
2018-03-31T02:38:50.184Z,100289.95
2018-03-31T02:39:13.013Z,100292.54
2018-03-31T02:39:35.050Z,100294.95
2018-03-31T02:39:57.870Z,100294.03
2018-03-31T02:40:20.702Z,100294.03
2018-03-31T02:40:42.770Z,100295.16
2018-03-31T02:41:04.833Z,100294.41
2018-03-31T02:41:26.879Z,100298.08
2018-03-31T02:41:48.969Z,100308.86
2018-03-31T02:42:11.022Z,100297.70
2018-03-31T02:42:33.083Z,100305.91
2018-03-31T02:42:55.209Z,100307.28
2018-03-31T02:43:17.262Z,100302.20
2018-03-31T02:43:40.076Z,100300.83
2018-03-31T02:44:02.929Z,100291.41
2018-03-31T02:44:25.759Z,100299.83
2018-03-31T02:44:48.573Z,100297.70
2018-03-31T02:45:10.639Z,100292.08
2018-03-31T02:45:32.718Z,100297.87
2018-03-31T02:45:54.773Z,100296.03
2018-03-31T02:46:16.840Z,100295.13
2018-03-31T02:46:38.881Z,100299.74
2018-03-31T02:47:01.740Z,100302.78
2018-03-31T02:47:23.810Z,100299.53
2018-03-31T02:47:45.942Z,100301.20
2018-03-31T02:48:08.762Z,100302.86
2018-03-31T02:48:30.833Z,100298.78
2018-03-31T02:48:52.898Z,100297.25
2018-03-31T02:49:14.958Z,100295.88
2018-03-31T02:49:37.001Z,100294.58
2018-03-31T02:49:59.063Z,100303.70
2018-03-31T02:50:21.128Z,100297.91
2018-03-31T02:50:43.182Z,100296.16
2018-03-31T02:51:05.245Z,100298.00
2018-03-31T02:51:27.308Z,100304.91
2018-03-31T02:51:49.397Z,100293.66
2018-03-31T02:52:11.485Z,100295.25
2018-03-31T02:52:34.297Z,100303.08
2018-03-31T02:52:56.352Z,100288.50
2018-03-31T02:53:18.392Z,100294.03
2018-03-31T02:53:40.454Z,100291.91
2018-03-31T02:54:02.534Z,100297.08
2018-03-31T02:54:24.604Z,100298.83
2018-03-31T02:54:47.434Z,100299.00
2018-03-31T02:55:09.639Z,100293.00
2018-03-31T02:55:31.690Z,100297.50
2018-03-31T02:55:53.744Z,100298.33
2018-03-31T02:56:15.803Z,100295.20
2018-03-31T02:56:38.626Z,100299.33
2018-03-31T02:57:00.673Z,100299.87
2018-03-31T02:57:22.764Z,100300.16
2018-03-31T02:57:44.806Z,100303.28
2018-03-31T02:58:06.881Z,100301.91
2018-03-31T02:58:28.937Z,100306.16
2018-03-31T02:58:51.767Z,100301.95
2018-03-31T02:59:14.596Z,100307.11
2018-03-31T02:59:37.427Z,100309.48
2018-03-31T03:00:00.221Z,100302.03
2018-03-31T03:00:22.271Z,100306.66
2018-03-31T03:00:44.332Z,100304.45
2018-03-31T03:01:06.402Z,100306.28
2018-03-31T03:01:28.455Z,100308.66
2018-03-31T03:01:50.510Z,100303.78
2018-03-31T03:02:12.560Z,100303.53
2018-03-31T03:02:35.415Z,100307.57
2018-03-31T03:02:58.244Z,100303.83
2018-03-31T03:03:21.117Z,100307.16
2018-03-31T03:03:43.163Z,100301.53
2018-03-31T03:04:05.214Z,100305.03
2018-03-31T03:04:28.099Z,100296.91
2018-03-31T03:04:50.154Z,100293.50
2018-03-31T03:05:12.988Z,100295.45
2018-03-31T03:05:35.040Z,100298.95
2018-03-31T03:05:57.104Z,100295.33
2018-03-31T03:06:19.162Z,100296.91
2018-03-31T03:06:41.224Z,100296.00
2018-03-31T03:07:03.281Z,100295.25
2018-03-31T03:07:26.104Z,100297.95
2018-03-31T03:07:48.181Z,100298.78
2018-03-31T03:08:10.247Z,100299.33
2018-03-31T03:08:33.088Z,100299.53
2018-03-31T03:08:55.912Z,100300.83
2018-03-31T03:09:17.989Z,100297.75
2018-03-31T03:09:40.034Z,100290.45
2018-03-31T03:10:02.084Z,100289.83
2018-03-31T03:10:24.905Z,100294.16
2018-03-31T03:10:47.799Z,100294.33
2018-03-31T03:11:10.620Z,100296.70
2018-03-31T03:11:32.676Z,100288.05
2018-03-31T03:11:54.756Z,100296.41
2018-03-31T03:12:16.813Z,100289.20
2018-03-31T03:12:38.878Z,100293.38
2018-03-31T03:13:00.960Z,100288.58
2018-03-31T03:13:23.027Z,100285.00
2018-03-31T03:13:45.082Z,100286.45
2018-03-31T03:14:07.134Z,100294.13
2018-03-31T03:14:29.956Z,100291.37
2018-03-31T03:14:52.772Z,100283.09
2018-03-31T03:15:14.839Z,100288.42
2018-03-31T03:15:36.913Z,100286.58
2018-03-31T03:15:58.968Z,100289.16
2018-03-31T03:16:21.028Z,100290.66
2018-03-31T03:16:43.084Z,100280.87
2018-03-31T03:17:05.906Z,100293.12
2018-03-31T03:17:27.954Z,100296.33
2018-03-31T03:17:50.024Z,100291.54
2018-03-31T03:18:12.142Z,100293.38
2018-03-31T03:18:34.206Z,100294.87
2018-03-31T03:18:56.272Z,100284.17
2018-03-31T03:19:18.333Z,100290.70
2018-03-31T03:19:40.401Z,100287.67
2018-03-31T03:20:02.458Z,100293.95
2018-03-31T03:20:25.292Z,100292.29
2018-03-31T03:20:48.107Z,100281.50
2018-03-31T03:21:10.155Z,100287.33
2018-03-31T03:21:32.205Z,100288.33
2018-03-31T03:21:54.262Z,100291.00
2018-03-31T03:22:16.312Z,100301.41
2018-03-31T03:22:38.362Z,100298.08
2018-03-31T03:23:00.427Z,100294.50
2018-03-31T03:23:23.277Z,100297.53
2018-03-31T03:23:45.328Z,100295.33
2018-03-31T03:24:07.409Z,100293.58
2018-03-31T03:24:29.451Z,100294.41
2018-03-31T03:24:51.545Z,100296.70
2018-03-31T03:25:13.615Z,100289.62
2018-03-31T03:25:35.676Z,100290.83
2018-03-31T03:25:58.507Z,100289.62
2018-03-31T03:26:21.328Z,100290.00
2018-03-31T03:26:44.140Z,100294.50
2018-03-31T03:27:06.213Z,100289.70
2018-03-31T03:27:28.283Z,100293.88
2018-03-31T03:27:50.345Z,100296.45
2018-03-31T03:28:12.413Z,100301.33
2018-03-31T03:28:34.497Z,100301.70
2018-03-31T03:28:56.544Z,100302.70
2018-03-31T03:29:18.592Z,100299.20
2018-03-31T03:29:41.404Z,100293.33
2018-03-31T03:30:03.468Z,100300.87
2018-03-31T03:30:25.536Z,100294.50
2018-03-31T03:30:47.627Z,100299.49
2018-03-31T03:31:09.674Z,100299.03
2018-03-31T03:31:31.724Z,100296.45
2018-03-31T03:31:53.804Z,100297.75
2018-03-31T03:32:15.857Z,100292.29
2018-03-31T03:32:38.684Z,100298.20
2018-03-31T03:33:01.516Z,100296.62
2018-03-31T03:33:24.347Z,100291.45
2018-03-31T03:33:47.192Z,100295.88
2018-03-31T03:34:10.016Z,100291.08
2018-03-31T03:34:32.842Z,100296.45
2018-03-31T03:34:54.898Z,100286.12
2018-03-31T03:35:16.954Z,100294.53
2018-03-31T03:35:39.009Z,100290.58
2018-03-31T03:36:01.825Z,100286.80
2018-03-31T03:36:23.986Z,100290.75
2018-03-31T03:36:46.044Z,100292.95
2018-03-31T03:37:08.092Z,100294.78
2018-03-31T03:37:30.921Z,100293.50
2018-03-31T03:37:52.977Z,100288.17
2018-03-31T03:38:15.040Z,100292.50
2018-03-31T03:38:37.098Z,100288.70
2018-03-31T03:38:59.177Z,100288.33
2018-03-31T03:39:21.239Z,100297.75
2018-03-31T03:39:43.284Z,100296.00
2018-03-31T03:40:05.381Z,100292.13
2018-03-31T03:40:27.470Z,100297.53
2018-03-31T03:40:50.306Z,100290.38
2018-03-31T03:41:13.121Z,100292.13
2018-03-31T03:41:35.196Z,100305.03
2018-03-31T03:41:57.251Z,100298.13
2018-03-31T03:42:19.310Z,100300.03
2018-03-31T03:42:41.410Z,100303.98
2018-03-31T03:43:04.237Z,100303.73
2018-03-31T03:43:26.288Z,100301.45
2018-03-31T03:43:48.332Z,100303.20
2018-03-31T03:44:10.418Z,100301.62
2018-03-31T03:44:32.476Z,100305.48
2018-03-31T03:44:54.525Z,100298.49
2018-03-31T03:45:17.439Z,100302.45
2018-03-31T03:45:39.492Z,100303.91
2018-03-31T03:46:02.315Z,100301.62
2018-03-31T03:46:25.136Z,100299.95
2018-03-31T03:46:47.187Z,100304.58
2018-03-31T03:47:09.232Z,100312.23
2018-03-31T03:47:31.290Z,100307.70
2018-03-31T03:47:53.522Z,100310.66
2018-03-31T03:48:15.567Z,100306.78
2018-03-31T03:48:37.630Z,100306.03
2018-03-31T03:48:59.703Z,100304.95
2018-03-31T03:49:21.774Z,100310.03
2018-03-31T03:49:43.825Z,100308.53
2018-03-31T03:50:05.884Z,100312.11
2018-03-31T03:50:27.940Z,100300.78
2018-03-31T03:50:50.028Z,100311.03
2018-03-31T03:51:12.848Z,100312.77
2018-03-31T03:51:34.906Z,100298.95
2018-03-31T03:51:57.001Z,100311.41
2018-03-31T03:52:19.035Z,100300.08
2018-03-31T03:52:41.098Z,100299.99
2018-03-31T03:53:03.180Z,100303.03
2018-03-31T03:53:25.233Z,100300.08
2018-03-31T03:53:47.291Z,100291.79
2018-03-31T03:54:09.350Z,100295.13
2018-03-31T03:54:31.369Z,100295.46
2018-03-31T03:54:54.180Z,100297.20
2018-03-31T03:55:16.249Z,100296.75
2018-03-31T03:55:38.302Z,100291.13
2018-03-31T03:56:00.355Z,100296.21
2018-03-31T03:56:22.407Z,100288.47
2018-03-31T03:56:44.456Z,100289.20
2018-03-31T03:57:06.504Z,100290.58
2018-03-31T03:57:29.324Z,100288.75
2018-03-31T03:57:52.153Z,100285.97
2018-03-31T03:58:14.218Z,100294.46
2018-03-31T03:58:36.282Z,100284.42
2018-03-31T03:58:58.333Z,100280.55
2018-03-31T03:59:20.389Z,100280.80
2018-03-31T03:59:42.480Z,100283.96
2018-03-31T04:00:04.529Z,100281.64
2018-03-31T04:00:26.597Z,100284.50
2018-03-31T04:00:48.652Z,100282.67
2018-03-31T04:01:10.706Z,100281.72
2018-03-31T04:01:32.770Z,100278.88
2018-03-31T04:01:54.830Z,100279.05
2018-03-31T04:02:16.896Z,100271.89
2018-03-31T04:02:38.966Z,100276.38
2018-03-31T04:03:01.016Z,100277.13
2018-03-31T04:03:29.735Z,100278.42
2018-03-31T04:03:51.792Z,100268.55
2018-03-31T04:05:21.584Z,100269.84
2018-03-31T04:05:43.639Z,100267.89
2018-03-31T04:06:05.713Z,100268.02
2018-03-31T04:06:27.790Z,100268.35
2018-03-31T04:06:49.851Z,100279.05
2018-03-31T04:07:11.901Z,100273.89
2018-03-31T04:07:33.954Z,100276.47
2018-03-31T04:07:56.014Z,100275.92
2018-03-31T04:08:18.832Z,100275.34
2018-03-31T04:08:40.875Z,100275.72
2018-03-31T04:09:03.693Z,100278.67
2018-03-31T04:09:25.811Z,100272.67
2018-03-31T04:09:47.869Z,100281.59
2018-03-31T04:10:09.923Z,100276.13
2018-03-31T04:10:32.112Z,100271.26
2018-03-31T04:10:54.159Z,100271.84
2018-03-31T04:11:16.212Z,100270.47
2018-03-31T04:11:39.033Z,100283.30
2018-03-31T04:12:01.096Z,100275.17
2018-03-31T04:12:23.184Z,100272.30
2018-03-31T04:12:46.004Z,100280.34
2018-03-31T04:13:08.105Z,100274.05
2018-03-31T04:13:30.160Z,100276.26
2018-03-31T04:13:52.978Z,100277.09
2018-03-31T04:14:15.031Z,100280.13
2018-03-31T04:14:37.085Z,100277.17
2018-03-31T04:14:59.183Z,100279.84
2018-03-31T04:15:21.232Z,100276.42